Lankaran International Airport

About
Name: Lankaran International Airport
Identifier:  LLK/UBBL
Serves:  Lankaran , Azerbaijan
Operator:  Government
Public/Private:  Public
Local Time:  20. Jul 00:31 +04
Description: Lankaran International Airport is an airport serving Lankaran, a city in Azerbaijan in the south-east of Azerbaijan. Reconstruction of the Lankaran airport started in 2005 and finished in 2008, when the Lankaran airport received the status of an international airport.
Source: Wikipedia
Location
Runways
Identifier Length (m/ft) Surface
15/33 3,300/10,827 Asphalt
Flights per Day
0 flights
Distance: 2,023km (1,257mi)
Punctuality
0% (0 flights per day delayed)
Delay Average: 22 minutes
Current Weather
 22 C (Humidity: 73%)
  0kt (0km/h / 0mph) from 0°
  9km (6 mi.)
 METAR UBBL 192000Z 00000KT 9999 NSC 22/17 Q1011 R33/CLRD// NOSIG RMK MT OP

Current Flights

Departures
Number Departure To Airline
Arrivals
Number Arrival From Airline
 J2833 14:10 +12  Moscow  AZAL Azerbaijan Airlines

Current Delays

Departures
N/A
Arrivals
N/A

Destinations

Top Destinations
Airport Flights
per week
Seats
per week
  Moscow (VKO) 2 340 0 48
  Moscow (DME) 1 303 0 43

Airlines & Planes

Top Airlines
Airline Flights
per Day
Seats
per Day
  AZAL Azerbaijan Airlines 0 48
Ural Airlines 0 28
Azur Air 0 14
Top Plane Types
Model Flights Seats
Airbus A320 0.3/day 48/day 48.666666666666664
Airbus A321 0.3/day 43/day 43.333333333333336